sensor_id;sensor_type;location;lat;lon;timestamp;P1;durP1;ratioP1;P2;durP2;ratioP2
80315;SDS011;71201;47.064;15.448;2023-07-13T00:01:54;3.60;;;1.97;;
80315;SDS011;71201;47.064;15.448;2023-07-13T00:04:21;6.35;;;2.53;;
80315;SDS011;71201;47.064;15.448;2023-07-13T00:06:48;5.55;;;2.47;;
80315;SDS011;71201;47.064;15.448;2023-07-13T00:09:15;5.15;;;2.20;;
80315;SDS011;71201;47.064;15.448;2023-07-13T00:11:41;4.57;;;1.48;;
80315;SDS011;71201;47.064;15.448;2023-07-13T00:14:07;4.32;;;1.80;;
80315;SDS011;71201;47.064;15.448;2023-07-13T00:16:33;3.35;;;1.67;;
80315;SDS011;71201;47.064;15.448;2023-07-13T00:18:58;4.55;;;2.03;;
80315;SDS011;71201;47.064;15.448;2023-07-13T00:21:25;6.55;;;2.60;;
80315;SDS011;71201;47.064;15.448;2023-07-13T00:23:50;7.60;;;2.28;;
80315;SDS011;71201;47.064;15.448;2023-07-13T00:26:15;3.80;;;2.10;;
80315;SDS011;71201;47.064;15.448;2023-07-13T00:28:42;5.75;;;2.80;;
80315;SDS011;71201;47.064;15.448;2023-07-13T00:31:08;5.32;;;2.83;;
80315;SDS011;71201;47.064;15.448;2023-07-13T00:33:33;4.95;;;2.45;;
80315;SDS011;71201;47.064;15.448;2023-07-13T00:35:59;4.43;;;2.17;;
80315;SDS011;71201;47.064;15.448;2023-07-13T00:38:24;9.03;;;4.10;;
80315;SDS011;71201;47.064;15.448;2023-07-13T00:40:49;6.20;;;2.37;;
80315;SDS011;71201;47.064;15.448;2023-07-13T00:43:17;7.13;;;3.45;;
80315;SDS011;71201;47.064;15.448;2023-07-13T00:48:08;5.00;;;2.10;;
80315;SDS011;71201;47.064;15.448;2023-07-13T00:50:33;6.55;;;2.85;;
80315;SDS011;71201;47.064;15.448;2023-07-13T00:52:58;6.22;;;3.53;;
80315;SDS011;71201;47.064;15.448;2023-07-13T00:55:24;5.30;;;2.80;;
80315;SDS011;71201;47.064;15.448;2023-07-13T00:57:49;8.90;;;4.40;;
80315;SDS011;71201;47.064;15.448;2023-07-13T01:00:14;5.13;;;2.20;;
80315;SDS011;71201;47.064;15.448;2023-07-13T01:02:41;6.47;;;2.95;;
80315;SDS011;71201;47.064;15.448;2023-07-13T01:05:14;7.30;;;4.00;;
80315;SDS011;71201;47.064;15.448;2023-07-13T01:07:39;6.43;;;2.97;;
80315;SDS011;71201;47.064;15.448;2023-07-13T01:10:06;4.43;;;2.50;;
80315;SDS011;71201;47.064;15.448;2023-07-13T01:12:31;9.02;;;5.28;;
80315;SDS011;71201;47.064;15.448;2023-07-13T01:14:58;7.00;;;3.30;;
80315;SDS011;71201;47.064;15.448;2023-07-13T01:17:25;3.63;;;1.80;;
80315;SDS011;71201;47.064;15.448;2023-07-13T01:19:51;4.72;;;2.25;;
80315;SDS011;71201;47.064;15.448;2023-07-13T01:22:17;6.50;;;2.72;;
80315;SDS011;71201;47.064;15.448;2023-07-13T01:24:45;5.40;;;2.83;;
80315;SDS011;71201;47.064;15.448;2023-07-13T01:27:11;6.47;;;2.95;;
80315;SDS011;71201;47.064;15.448;2023-07-13T01:29:37;9.55;;;4.28;;
80315;SDS011;71201;47.064;15.448;2023-07-13T01:32:08;6.97;;;3.22;;
80315;SDS011;71201;47.064;15.448;2023-07-13T01:34:34;7.18;;;3.92;;
80315;SDS011;71201;47.064;15.448;2023-07-13T01:36:59;8.82;;;4.15;;
80315;SDS011;71201;47.064;15.448;2023-07-13T01:39:24;11.70;;;4.43;;
80315;SDS011;71201;47.064;15.448;2023-07-13T01:41:50;12.30;;;3.67;;
80315;SDS011;71201;47.064;15.448;2023-07-13T01:44:15;11.98;;;6.03;;
80315;SDS011;71201;47.064;15.448;2023-07-13T01:46:40;7.30;;;3.70;;
80315;SDS011;71201;47.064;15.448;2023-07-13T01:49:05;13.13;;;5.87;;
80315;SDS011;71201;47.064;15.448;2023-07-13T01:51:31;14.90;;;4.43;;
80315;SDS011;71201;47.064;15.448;2023-07-13T01:53:56;12.23;;;5.90;;
80315;SDS011;71201;47.064;15.448;2023-07-13T01:56:21;12.77;;;3.90;;
80315;SDS011;71201;47.064;15.448;2023-07-13T01:58:46;9.80;;;3.80;;
80315;SDS011;71201;47.064;15.448;2023-07-13T02:01:12;26.07;;;4.57;;
80315;SDS011;71201;47.064;15.448;2023-07-13T02:03:37;12.20;;;5.33;;
80315;SDS011;71201;47.064;15.448;2023-07-13T02:06:02;8.93;;;4.20;;
80315;SDS011;71201;47.064;15.448;2023-07-13T02:08:28;16.23;;;6.00;;
80315;SDS011;71201;47.064;15.448;2023-07-13T02:10:53;8.82;;;3.30;;
80315;SDS011;71201;47.064;15.448;2023-07-13T02:13:18;19.83;;;4.17;;
80315;SDS011;71201;47.064;15.448;2023-07-13T02:15:43;19.83;;;3.27;;
80315;SDS011;71201;47.064;15.448;2023-07-13T02:18:09;317.30;;;164.77;;
80315;SDS011;71201;47.064;15.448;2023-07-13T02:20:34;325.10;;;173.77;;
80315;SDS011;71201;47.064;15.448;2023-07-13T02:23:00;40.97;;;22.45;;
80315;SDS011;71201;47.064;15.448;2023-07-13T02:25:25;145.05;;;68.40;;
80315;SDS011;71201;47.064;15.448;2023-07-13T02:27:51;221.38;;;122.15;;
80315;SDS011;71201;47.064;15.448;2023-07-13T02:30:17;197.20;;;97.65;;
80315;SDS011;71201;47.064;15.448;2023-07-13T02:32:42;164.52;;;80.45;;
80315;SDS011;71201;47.064;15.448;2023-07-13T02:35:08;228.30;;;112.32;;
80315;SDS011;71201;47.064;15.448;2023-07-13T02:37:34;193.70;;;106.40;;
80315;SDS011;71201;47.064;15.448;2023-07-13T02:39:59;74.33;;;39.73;;
80315;SDS011;71201;47.064;15.448;2023-07-13T02:42:24;130.37;;;66.77;;
80315;SDS011;71201;47.064;15.448;2023-07-13T02:44:49;89.57;;;44.63;;
80315;SDS011;71201;47.064;15.448;2023-07-13T02:47:15;108.18;;;53.83;;
80315;SDS011;71201;47.064;15.448;2023-07-13T02:49:41;107.82;;;58.90;;
80315;SDS011;71201;47.064;15.448;2023-07-13T02:52:06;108.97;;;61.93;;
80315;SDS011;71201;47.064;15.448;2023-07-13T02:54:31;77.07;;;40.37;;
80315;SDS011;71201;47.064;15.448;2023-07-13T02:56:57;112.80;;;61.05;;
80315;SDS011;71201;47.064;15.448;2023-07-13T02:59:22;99.80;;;55.65;;
80315;SDS011;71201;47.064;15.448;2023-07-13T03:01:48;111.13;;;60.13;;
80315;SDS011;71201;47.064;15.448;2023-07-13T03:04:13;89.80;;;45.50;;
80315;SDS011;71201;47.064;15.448;2023-07-13T03:06:38;97.45;;;50.78;;
80315;SDS011;71201;47.064;15.448;2023-07-13T03:09:04;103.53;;;53.67;;
80315;SDS011;71201;47.064;15.448;2023-07-13T03:11:29;77.82;;;42.55;;
80315;SDS011;71201;47.064;15.448;2023-07-13T03:13:55;71.57;;;36.80;;
80315;SDS011;71201;47.064;15.448;2023-07-13T03:16:20;33.45;;;17.48;;
80315;SDS011;71201;47.064;15.448;2023-07-13T03:18:45;32.42;;;13.73;;
80315;SDS011;71201;47.064;15.448;2023-07-13T03:21:11;17.45;;;8.52;;
80315;SDS011;71201;47.064;15.448;2023-07-13T03:23:36;29.83;;;12.27;;
80315;SDS011;71201;47.064;15.448;2023-07-13T03:28:29;17.88;;;3.72;;
80315;SDS011;71201;47.064;15.448;2023-07-13T03:31:09;13.27;;;6.95;;
80315;SDS011;71201;47.064;15.448;2023-07-13T03:33:34;8.00;;;3.05;;
80315;SDS011;71201;47.064;15.448;2023-07-13T03:35:59;7.20;;;3.78;;
80315;SDS011;71201;47.064;15.448;2023-07-13T03:38:25;26.37;;;14.33;;
80315;SDS011;71201;47.064;15.448;2023-07-13T03:40:51;44.88;;;22.55;;
80315;SDS011;71201;47.064;15.448;2023-07-13T03:43:16;65.18;;;33.45;;
80315;SDS011;71201;47.064;15.448;2023-07-13T03:45:41;58.20;;;30.17;;
80315;SDS011;71201;47.064;15.448;2023-07-13T03:48:07;63.60;;;31.17;;
80315;SDS011;71201;47.064;15.448;2023-07-13T03:50:32;82.70;;;45.93;;
80315;SDS011;71201;47.064;15.448;2023-07-13T03:52:57;53.77;;;29.73;;
80315;SDS011;71201;47.064;15.448;2023-07-13T03:55:23;42.78;;;21.63;;
80315;SDS011;71201;47.064;15.448;2023-07-13T03:57:53;45.60;;;25.63;;
80315;SDS011;71201;47.064;15.448;2023-07-13T04:00:19;46.30;;;26.48;;
80315;SDS011;71201;47.064;15.448;2023-07-13T04:02:44;50.47;;;28.58;;
80315;SDS011;71201;47.064;15.448;2023-07-13T04:05:11;34.33;;;18.52;;
80315;SDS011;71201;47.064;15.448;2023-07-13T04:07:37;40.37;;;23.13;;
80315;SDS011;71201;47.064;15.448;2023-07-13T04:10:02;28.93;;;15.93;;
80315;SDS011;71201;47.064;15.448;2023-07-13T04:12:27;48.58;;;26.70;;
80315;SDS011;71201;47.064;15.448;2023-07-13T04:14:53;57.23;;;31.43;;
80315;SDS011;71201;47.064;15.448;2023-07-13T04:17:19;43.25;;;25.58;;
80315;SDS011;71201;47.064;15.448;2023-07-13T04:19:44;50.43;;;28.67;;
80315;SDS011;71201;47.064;15.448;2023-07-13T04:22:09;33.80;;;20.33;;
80315;SDS011;71201;47.064;15.448;2023-07-13T04:24:35;52.47;;;31.73;;
80315;SDS011;71201;47.064;15.448;2023-07-13T04:27:00;29.52;;;17.40;;
80315;SDS011;71201;47.064;15.448;2023-07-13T04:29:26;40.13;;;23.05;;
80315;SDS011;71201;47.064;15.448;2023-07-13T04:31:51;23.67;;;12.50;;
80315;SDS011;71201;47.064;15.448;2023-07-13T04:34:17;31.53;;;18.23;;
80315;SDS011;71201;47.064;15.448;2023-07-13T04:36:42;16.07;;;8.03;;
80315;SDS011;71201;47.064;15.448;2023-07-13T04:39:07;22.50;;;12.03;;
80315;SDS011;71201;47.064;15.448;2023-07-13T04:41:33;24.00;;;15.00;;
80315;SDS011;71201;47.064;15.448;2023-07-13T04:43:59;31.57;;;19.73;;
80315;SDS011;71201;47.064;15.448;2023-07-13T04:46:24;37.77;;;19.33;;
80315;SDS011;71201;47.064;15.448;2023-07-13T04:48:49;28.80;;;17.43;;
80315;SDS011;71201;47.064;15.448;2023-07-13T04:51:16;29.50;;;16.48;;
80315;SDS011;71201;47.064;15.448;2023-07-13T04:53:41;18.93;;;11.00;;
80315;SDS011;71201;47.064;15.448;2023-07-13T04:56:06;27.97;;;15.87;;
80315;SDS011;71201;47.064;15.448;2023-07-13T04:58:31;20.63;;;11.50;;
80315;SDS011;71201;47.064;15.448;2023-07-13T05:01:00;19.85;;;12.77;;
80315;SDS011;71201;47.064;15.448;2023-07-13T05:05:58;27.17;;;15.93;;
80315;SDS011;71201;47.064;15.448;2023-07-13T05:08:23;21.55;;;12.88;;
80315;SDS011;71201;47.064;15.448;2023-07-13T05:10:48;19.95;;;12.80;;
80315;SDS011;71201;47.064;15.448;2023-07-13T05:13:14;18.47;;;10.90;;
80315;SDS011;71201;47.064;15.448;2023-07-13T05:15:39;17.63;;;10.37;;
80315;SDS011;71201;47.064;15.448;2023-07-13T05:18:04;17.60;;;9.13;;
80315;SDS011;71201;47.064;15.448;2023-07-13T05:20:29;14.23;;;8.07;;
80315;SDS011;71201;47.064;15.448;2023-07-13T05:22:54;14.33;;;8.03;;
80315;SDS011;71201;47.064;15.448;2023-07-13T05:25:20;12.20;;;7.27;;
80315;SDS011;71201;47.064;15.448;2023-07-13T05:27:45;15.27;;;8.43;;
80315;SDS011;71201;47.064;15.448;2023-07-13T05:30:13;5.50;;;2.30;;
80315;SDS011;71201;47.064;15.448;2023-07-13T05:32:38;6.10;;;2.20;;
80315;SDS011;71201;47.064;15.448;2023-07-13T05:35:04;3.33;;;1.55;;
80315;SDS011;71201;47.064;15.448;2023-07-13T05:37:29;2.63;;;1.50;;
80315;SDS011;71201;47.064;15.448;2023-07-13T05:39:54;3.27;;;1.70;;
80315;SDS011;71201;47.064;15.448;2023-07-13T05:42:20;5.07;;;1.80;;
80315;SDS011;71201;47.064;15.448;2023-07-13T05:44:45;5.13;;;2.00;;
80315;SDS011;71201;47.064;15.448;2023-07-13T05:47:10;5.27;;;1.70;;
80315;SDS011;71201;47.064;15.448;2023-07-13T05:49:35;4.67;;;2.07;;
80315;SDS011;71201;47.064;15.448;2023-07-13T05:52:01;3.80;;;1.80;;
80315;SDS011;71201;47.064;15.448;2023-07-13T05:54:26;2.85;;;1.50;;
80315;SDS011;71201;47.064;15.448;2023-07-13T05:56:51;3.65;;;1.45;;
80315;SDS011;71201;47.064;15.448;2023-07-13T05:59:17;3.00;;;1.27;;
80315;SDS011;71201;47.064;15.448;2023-07-13T06:01:42;2.78;;;1.30;;
80315;SDS011;71201;47.064;15.448;2023-07-13T06:04:08;2.63;;;1.20;;
80315;SDS011;71201;47.064;15.448;2023-07-13T06:06:33;4.53;;;1.57;;
80315;SDS011;71201;47.064;15.448;2023-07-13T06:08:58;3.28;;;0.90;;
80315;SDS011;71201;47.064;15.448;2023-07-13T06:11:24;2.87;;;1.00;;
80315;SDS011;71201;47.064;15.448;2023-07-13T06:13:50;5.20;;;1.50;;
80315;SDS011;71201;47.064;15.448;2023-07-13T06:16:16;2.38;;;1.10;;
80315;SDS011;71201;47.064;15.448;2023-07-13T06:18:41;2.53;;;1.27;;
80315;SDS011;71201;47.064;15.448;2023-07-13T06:21:10;2.78;;;1.00;;
80315;SDS011;71201;47.064;15.448;2023-07-13T06:23:36;2.65;;;1.00;;
80315;SDS011;71201;47.064;15.448;2023-07-13T06:26:02;2.65;;;1.35;;
80315;SDS011;71201;47.064;15.448;2023-07-13T06:28:28;2.72;;;1.52;;
80315;SDS011;71201;47.064;15.448;2023-07-13T06:30:53;2.40;;;0.95;;
80315;SDS011;71201;47.064;15.448;2023-07-13T06:33:18;2.90;;;1.00;;
80315;SDS011;71201;47.064;15.448;2023-07-13T06:35:43;1.83;;;0.87;;
80315;SDS011;71201;47.064;15.448;2023-07-13T06:38:08;4.37;;;1.40;;
80315;SDS011;71201;47.064;15.448;2023-07-13T06:40:34;2.40;;;1.10;;
80315;SDS011;71201;47.064;15.448;2023-07-13T06:42:59;1.80;;;0.93;;
80315;SDS011;71201;47.064;15.448;2023-07-13T06:45:24;4.70;;;1.10;;
80315;SDS011;71201;47.064;15.448;2023-07-13T06:47:49;2.47;;;0.97;;
80315;SDS011;71201;47.064;15.448;2023-07-13T06:50:15;3.03;;;1.17;;
80315;SDS011;71201;47.064;15.448;2023-07-13T06:52:40;4.38;;;1.10;;
80315;SDS011;71201;47.064;15.448;2023-07-13T06:55:05;4.10;;;1.13;;
80315;SDS011;71201;47.064;15.448;2023-07-13T06:57:31;2.63;;;1.20;;
80315;SDS011;71201;47.064;15.448;2023-07-13T06:59:56;3.53;;;1.30;;
80315;SDS011;71201;47.064;15.448;2023-07-13T07:02:22;5.88;;;1.20;;
80315;SDS011;71201;47.064;15.448;2023-07-13T07:04:47;4.33;;;1.13;;
80315;SDS011;71201;47.064;15.448;2023-07-13T07:07:12;2.00;;;0.90;;
80315;SDS011;71201;47.064;15.448;2023-07-13T07:09:38;2.27;;;0.90;;
80315;SDS011;71201;47.064;15.448;2023-07-13T07:12:03;3.13;;;1.13;;
80315;SDS011;71201;47.064;15.448;2023-07-13T07:14:29;2.13;;;1.00;;
80315;SDS011;71201;47.064;15.448;2023-07-13T07:16:54;2.47;;;1.17;;
80315;SDS011;71201;47.064;15.448;2023-07-13T07:19:20;2.20;;;0.85;;
80315;SDS011;71201;47.064;15.448;2023-07-13T07:21:45;2.30;;;0.70;;
80315;SDS011;71201;47.064;15.448;2023-07-13T07:24:10;2.57;;;0.90;;
80315;SDS011;71201;47.064;15.448;2023-07-13T07:26:35;2.25;;;0.93;;
80315;SDS011;71201;47.064;15.448;2023-07-13T07:29:01;3.25;;;1.00;;
80315;SDS011;71201;47.064;15.448;2023-07-13T07:31:26;1.93;;;1.10;;
80315;SDS011;71201;47.064;15.448;2023-07-13T07:33:51;2.57;;;0.80;;
80315;SDS011;71201;47.064;15.448;2023-07-13T07:36:16;1.60;;;0.70;;
80315;SDS011;71201;47.064;15.448;2023-07-13T07:38:42;2.37;;;1.00;;
80315;SDS011;71201;47.064;15.448;2023-07-13T07:41:07;2.75;;;0.80;;
80315;SDS011;71201;47.064;15.448;2023-07-13T07:43:32;1.92;;;0.90;;
80315;SDS011;71201;47.064;15.448;2023-07-13T07:45:58;2.67;;;0.82;;
80315;SDS011;71201;47.064;15.448;2023-07-13T07:48:24;3.65;;;0.90;;
80315;SDS011;71201;47.064;15.448;2023-07-13T07:50:49;1.97;;;0.87;;
80315;SDS011;71201;47.064;15.448;2023-07-13T07:53:14;2.50;;;1.10;;
80315;SDS011;71201;47.064;15.448;2023-07-13T07:55:39;2.63;;;0.97;;
80315;SDS011;71201;47.064;15.448;2023-07-13T07:58:05;2.55;;;0.85;;
80315;SDS011;71201;47.064;15.448;2023-07-13T08:00:30;2.50;;;0.80;;
80315;SDS011;71201;47.064;15.448;2023-07-13T08:02:56;2.08;;;0.80;;
80315;SDS011;71201;47.064;15.448;2023-07-13T08:05:22;2.35;;;1.02;;
80315;SDS011;71201;47.064;15.448;2023-07-13T08:07:47;2.90;;;0.70;;
80315;SDS011;71201;47.064;15.448;2023-07-13T08:10:12;2.80;;;0.90;;
80315;SDS011;71201;47.064;15.448;2023-07-13T08:12:38;3.03;;;1.00;;
80315;SDS011;71201;47.064;15.448;2023-07-13T08:15:03;2.40;;;1.02;;
80315;SDS011;71201;47.064;15.448;2023-07-13T08:17:29;1.40;;;0.80;;
80315;SDS011;71201;47.064;15.448;2023-07-13T08:19:54;1.52;;;0.68;;
80315;SDS011;71201;47.064;15.448;2023-07-13T08:22:20;2.03;;;0.98;;
80315;SDS011;71201;47.064;15.448;2023-07-13T08:24:45;1.10;;;0.55;;
80315;SDS011;71201;47.064;15.448;2023-07-13T08:27:10;2.00;;;0.77;;
80315;SDS011;71201;47.064;15.448;2023-07-13T08:29:39;1.88;;;0.80;;
80315;SDS011;71201;47.064;15.448;2023-07-13T08:32:05;3.10;;;0.93;;
80315;SDS011;71201;47.064;15.448;2023-07-13T08:34:30;6.07;;;1.15;;
80315;SDS011;71201;47.064;15.448;2023-07-13T08:36:56;2.87;;;0.90;;
80315;SDS011;71201;47.064;15.448;2023-07-13T08:39:21;2.17;;;1.10;;
80315;SDS011;71201;47.064;15.448;2023-07-13T08:41:50;1.97;;;0.87;;
80315;SDS011;71201;47.064;15.448;2023-07-13T08:44:22;2.67;;;1.10;;
80315;SDS011;71201;47.064;15.448;2023-07-13T08:46:51;5.25;;;0.90;;
80315;SDS011;71201;47.064;15.448;2023-07-13T08:49:20;1.70;;;0.80;;
80315;SDS011;71201;47.064;15.448;2023-07-13T08:54:30;2.13;;;0.77;;
80315;SDS011;71201;47.064;15.448;2023-07-13T08:56:56;1.48;;;0.85;;
80315;SDS011;71201;47.064;15.448;2023-07-13T08:59:24;1.42;;;0.70;;
80315;SDS011;71201;47.064;15.448;2023-07-13T09:04:32;1.60;;;1.10;;
80315;SDS011;71201;47.064;15.448;2023-07-13T09:07:02;1.75;;;0.85;;
80315;SDS011;71201;47.064;15.448;2023-07-13T09:09:34;3.65;;;1.00;;
80315;SDS011;71201;47.064;15.448;2023-07-13T09:14:37;2.20;;;1.05;;
80315;SDS011;71201;47.064;15.448;2023-07-13T09:17:04;1.63;;;0.93;;
80315;SDS011;71201;47.064;15.448;2023-07-13T09:19:30;1.17;;;0.70;;
80315;SDS011;71201;47.064;15.448;2023-07-13T09:21:57;1.35;;;0.80;;
80315;SDS011;71201;47.064;15.448;2023-07-13T09:26:49;2.07;;;0.80;;
80315;SDS011;71201;47.064;15.448;2023-07-13T09:29:21;1.10;;;0.60;;
80315;SDS011;71201;47.064;15.448;2023-07-13T09:31:50;1.00;;;0.50;;
80315;SDS011;71201;47.064;15.448;2023-07-13T09:34:18;1.67;;;0.73;;
80315;SDS011;71201;47.064;15.448;2023-07-13T09:36:43;1.40;;;0.50;;
80315;SDS011;71201;47.064;15.448;2023-07-13T09:39:14;1.40;;;0.80;;
80315;SDS011;71201;47.064;15.448;2023-07-13T09:44:17;2.58;;;0.65;;
80315;SDS011;71201;47.064;15.448;2023-07-13T09:46:51;1.30;;;0.80;;
80315;SDS011;71201;47.064;15.448;2023-07-13T09:49:17;1.67;;;0.80;;
80315;SDS011;71201;47.064;15.448;2023-07-13T09:58:39;1.25;;;0.75;;
80315;SDS011;71201;47.064;15.448;2023-07-13T10:01:04;1.65;;;0.70;;
80315;SDS011;71201;47.064;15.448;2023-07-13T10:05:13;1.35;;;0.70;;
80315;SDS011;71201;47.064;15.448;2023-07-13T10:12:38;1.75;;;0.95;;
80315;SDS011;71201;47.064;15.448;2023-07-13T10:16:24;2.58;;;1.33;;
80315;SDS011;71201;47.064;15.448;2023-07-13T10:23:40;3.53;;;0.80;;
80315;SDS011;71201;47.064;15.448;2023-07-13T10:28:35;2.25;;;1.10;;
80315;SDS011;71201;47.064;15.448;2023-07-13T10:31:01;2.03;;;1.10;;
80315;SDS011;71201;47.064;15.448;2023-07-13T10:45:37;1.40;;;0.98;;
80315;SDS011;71201;47.064;15.448;2023-07-13T10:58:18;1.88;;;0.70;;
80315;SDS011;71201;47.064;15.448;2023-07-13T11:05:32;2.47;;;0.77;;
80315;SDS011;71201;47.064;15.448;2023-07-13T11:22:41;1.50;;;0.90;;
80315;SDS011;71201;47.064;15.448;2023-07-13T11:44:20;6.63;;;0.95;;
80315;SDS011;71201;47.064;15.448;2023-07-13T11:51:35;1.58;;;0.70;;
80315;SDS011;71201;47.064;15.448;2023-07-13T12:18:56;2.78;;;1.20;;
80315;SDS011;71201;47.064;15.448;2023-07-13T12:23:47;2.28;;;1.15;;
80315;SDS011;71201;47.064;15.448;2023-07-13T12:35:53;2.05;;;1.15;;
80315;SDS011;71201;47.064;15.448;2023-07-13T12:40:44;2.15;;;1.10;;
80315;SDS011;71201;47.064;15.448;2023-07-13T12:58:02;2.83;;;1.15;;
80315;SDS011;71201;47.064;15.448;2023-07-13T13:08:56;6.38;;;1.38;;
80315;SDS011;71201;47.064;15.448;2023-07-13T13:28:33;2.23;;;0.90;;
80315;SDS011;71201;47.064;15.448;2023-07-13T13:40:46;2.55;;;1.20;;
80315;SDS011;71201;47.064;15.448;2023-07-13T13:43:18;4.27;;;1.17;;
80315;SDS011;71201;47.064;15.448;2023-07-13T13:45:44;2.40;;;1.10;;
80315;SDS011;71201;47.064;15.448;2023-07-13T13:48:17;4.03;;;1.08;;
80315;SDS011;71201;47.064;15.448;2023-07-13T13:50:43;2.17;;;1.00;;
80315;SDS011;71201;47.064;15.448;2023-07-13T13:53:11;2.00;;;0.95;;
80315;SDS011;71201;47.064;15.448;2023-07-13T13:58:02;2.28;;;1.13;;
80315;SDS011;71201;47.064;15.448;2023-07-13T14:00:28;2.35;;;1.00;;
80315;SDS011;71201;47.064;15.448;2023-07-13T14:02:54;2.50;;;1.10;;
80315;SDS011;71201;47.064;15.448;2023-07-13T14:05:23;2.08;;;1.00;;
80315;SDS011;71201;47.064;15.448;2023-07-13T14:07:48;2.65;;;1.13;;
80315;SDS011;71201;47.064;15.448;2023-07-13T14:10:15;1.85;;;0.82;;
80315;SDS011;71201;47.064;15.448;2023-07-13T14:12:44;1.70;;;1.10;;
80315;SDS011;71201;47.064;15.448;2023-07-13T14:15:15;2.60;;;0.90;;
80315;SDS011;71201;47.064;15.448;2023-07-13T14:17:42;1.77;;;0.93;;
80315;SDS011;71201;47.064;15.448;2023-07-13T14:20:10;1.95;;;0.80;;
80315;SDS011;71201;47.064;15.448;2023-07-13T14:22:36;1.67;;;0.68;;
80315;SDS011;71201;47.064;15.448;2023-07-13T14:25:03;2.13;;;0.82;;
80315;SDS011;71201;47.064;15.448;2023-07-13T14:27:28;1.70;;;0.85;;
80315;SDS011;71201;47.064;15.448;2023-07-13T14:29:53;2.17;;;1.17;;
80315;SDS011;71201;47.064;15.448;2023-07-13T14:32:18;1.53;;;0.87;;
80315;SDS011;71201;47.064;15.448;2023-07-13T14:34:43;4.57;;;1.27;;
80315;SDS011;71201;47.064;15.448;2023-07-13T14:37:11;1.70;;;0.90;;
80315;SDS011;71201;47.064;15.448;2023-07-13T14:39:38;2.50;;;0.90;;
80315;SDS011;71201;47.064;15.448;2023-07-13T14:42:03;1.80;;;0.90;;
80315;SDS011;71201;47.064;15.448;2023-07-13T14:44:29;1.85;;;0.90;;
80315;SDS011;71201;47.064;15.448;2023-07-13T14:46:56;3.63;;;1.05;;
80315;SDS011;71201;47.064;15.448;2023-07-13T14:51:54;2.03;;;1.08;;
80315;SDS011;71201;47.064;15.448;2023-07-13T14:54:19;2.03;;;0.73;;
80315;SDS011;71201;47.064;15.448;2023-07-13T14:56:44;2.57;;;0.90;;
80315;SDS011;71201;47.064;15.448;2023-07-13T14:59:09;1.90;;;0.93;;
80315;SDS011;71201;47.064;15.448;2023-07-13T15:01:35;3.67;;;1.03;;
80315;SDS011;71201;47.064;15.448;2023-07-13T15:04:00;1.90;;;0.93;;
80315;SDS011;71201;47.064;15.448;2023-07-13T15:06:26;2.33;;;1.02;;
80315;SDS011;71201;47.064;15.448;2023-07-13T15:08:52;2.57;;;1.17;;
80315;SDS011;71201;47.064;15.448;2023-07-13T15:11:17;3.47;;;1.20;;
80315;SDS011;71201;47.064;15.448;2023-07-13T15:13:43;2.40;;;0.98;;
80315;SDS011;71201;47.064;15.448;2023-07-13T15:16:13;3.38;;;1.10;;
80315;SDS011;71201;47.064;15.448;2023-07-13T15:18:39;3.63;;;1.00;;
80315;SDS011;71201;47.064;15.448;2023-07-13T15:21:09;2.25;;;1.08;;
80315;SDS011;71201;47.064;15.448;2023-07-13T15:25:59;2.83;;;1.10;;
80315;SDS011;71201;47.064;15.448;2023-07-13T15:28:25;9.67;;;1.90;;
80315;SDS011;71201;47.064;15.448;2023-07-13T15:30:50;5.83;;;1.47;;
80315;SDS011;71201;47.064;15.448;2023-07-13T15:33:28;3.65;;;1.30;;
80315;SDS011;71201;47.064;15.448;2023-07-13T15:35:54;2.88;;;1.30;;
80315;SDS011;71201;47.064;15.448;2023-07-13T15:38:23;3.85;;;1.33;;
80315;SDS011;71201;47.064;15.448;2023-07-13T15:40:49;4.53;;;1.90;;
80315;SDS011;71201;47.064;15.448;2023-07-13T15:43:15;7.63;;;2.78;;
80315;SDS011;71201;47.064;15.448;2023-07-13T15:45:41;10.15;;;3.45;;
80315;SDS011;71201;47.064;15.448;2023-07-13T15:48:11;10.60;;;4.32;;
80315;SDS011;71201;47.064;15.448;2023-07-13T15:50:41;8.35;;;4.18;;
80315;SDS011;71201;47.064;15.448;2023-07-13T15:53:08;10.93;;;4.32;;
80315;SDS011;71201;47.064;15.448;2023-07-13T15:55:33;11.23;;;4.45;;
80315;SDS011;71201;47.064;15.448;2023-07-13T15:58:01;8.07;;;4.15;;
80315;SDS011;71201;47.064;15.448;2023-07-13T16:00:27;8.40;;;4.17;;
80315;SDS011;71201;47.064;15.448;2023-07-13T16:02:52;5.70;;;2.95;;
80315;SDS011;71201;47.064;15.448;2023-07-13T16:05:19;6.20;;;3.38;;
80315;SDS011;71201;47.064;15.448;2023-07-13T16:07:45;10.15;;;3.20;;
80315;SDS011;71201;47.064;15.448;2023-07-13T16:10:17;6.07;;;3.40;;
80315;SDS011;71201;47.064;15.448;2023-07-13T16:12:43;7.20;;;3.88;;
80315;SDS011;71201;47.064;15.448;2023-07-13T16:15:12;7.93;;;3.58;;
80315;SDS011;71201;47.064;15.448;2023-07-13T16:17:38;5.93;;;3.10;;
80315;SDS011;71201;47.064;15.448;2023-07-13T16:20:06;5.18;;;3.03;;
80315;SDS011;71201;47.064;15.448;2023-07-13T16:22:31;12.52;;;3.53;;
80315;SDS011;71201;47.064;15.448;2023-07-13T16:24:56;8.67;;;4.00;;
80315;SDS011;71201;47.064;15.448;2023-07-13T16:27:23;5.05;;;3.30;;
80315;SDS011;71201;47.064;15.448;2023-07-13T16:29:48;6.55;;;2.88;;
80315;SDS011;71201;47.064;15.448;2023-07-13T16:32:14;7.33;;;3.63;;
80315;SDS011;71201;47.064;15.448;2023-07-13T16:34:40;8.77;;;3.47;;
80315;SDS011;71201;47.064;15.448;2023-07-13T16:37:16;7.43;;;4.25;;
80315;SDS011;71201;47.064;15.448;2023-07-13T16:39:42;6.93;;;3.40;;
80315;SDS011;71201;47.064;15.448;2023-07-13T16:42:09;6.35;;;3.80;;
80315;SDS011;71201;47.064;15.448;2023-07-13T16:44:36;5.70;;;2.65;;
80315;SDS011;71201;47.064;15.448;2023-07-13T16:47:01;3.50;;;2.40;;
80315;SDS011;71201;47.064;15.448;2023-07-13T16:51:53;5.25;;;2.65;;
80315;SDS011;71201;47.064;15.448;2023-07-13T16:54:19;9.88;;;2.53;;
80315;SDS011;71201;47.064;15.448;2023-07-13T16:56:46;5.75;;;2.88;;
80315;SDS011;71201;47.064;15.448;2023-07-13T16:59:14;5.45;;;2.80;;
80315;SDS011;71201;47.064;15.448;2023-07-13T17:01:40;4.97;;;2.60;;
80315;SDS011;71201;47.064;15.448;2023-07-13T17:04:08;4.78;;;2.35;;
80315;SDS011;71201;47.064;15.448;2023-07-13T17:06:34;5.85;;;2.70;;
80315;SDS011;71201;47.064;15.448;2023-07-13T17:09:00;4.33;;;2.60;;
80315;SDS011;71201;47.064;15.448;2023-07-13T17:11:26;4.00;;;2.22;;
80315;SDS011;71201;47.064;15.448;2023-07-13T17:13:51;4.60;;;2.63;;
80315;SDS011;71201;47.064;15.448;2023-07-13T17:16:17;3.20;;;2.07;;
80315;SDS011;71201;47.064;15.448;2023-07-13T17:18:42;3.60;;;1.90;;
80315;SDS011;71201;47.064;15.448;2023-07-13T17:21:10;5.88;;;2.80;;
80315;SDS011;71201;47.064;15.448;2023-07-13T17:23:37;4.28;;;2.20;;
80315;SDS011;71201;47.064;15.448;2023-07-13T17:26:04;6.70;;;2.95;;
80315;SDS011;71201;47.064;15.448;2023-07-13T17:28:29;41.93;;;7.83;;
80315;SDS011;71201;47.064;15.448;2023-07-13T17:30:55;25.48;;;11.05;;
80315;SDS011;71201;47.064;15.448;2023-07-13T17:33:29;7.45;;;3.40;;
80315;SDS011;71201;47.064;15.448;2023-07-13T17:35:56;4.93;;;2.97;;
80315;SDS011;71201;47.064;15.448;2023-07-13T17:38:22;6.50;;;3.17;;
80315;SDS011;71201;47.064;15.448;2023-07-13T17:40:48;7.55;;;3.00;;
80315;SDS011;71201;47.064;15.448;2023-07-13T17:43:14;6.72;;;2.60;;
80315;SDS011;71201;47.064;15.448;2023-07-13T17:45:40;5.55;;;2.60;;
80315;SDS011;71201;47.064;15.448;2023-07-13T17:48:07;6.10;;;2.88;;
80315;SDS011;71201;47.064;15.448;2023-07-13T17:50:35;5.68;;;3.05;;